• Join FlightAware (Why Join?)
  • Login
  • US Flag 
12:32AM EST


 

Airport Tracker/Info


-or-


 

Live Flight TrackerFlight Track Log ✈ N3681Y ✈ 04-Apr-2014 ✈ KBCT - KCLW

Flight Track Log - Related Links

Times and Time Zones

All times are in EDT time to prevent confusion due to time zone crossing. See the N3681Y flight status page for this flight to view local times or setup timezone preferences in your user account.

Time Position Orientation Groundspeed Altitude Reporting Facility
EDT Latitude Longitude Course Direction KTS MPH feet Rate Location/Type
06:13PM 26.7694 -80.8492 295° West 162 186 4,400  Level Miami Center
06:14PM 26.7850 -80.8869 295° West 156 180 4,400  Level Miami Center
06:15PM 26.8069 -80.9250 303° West 156 180 4,500  Climbing Miami Center
06:16PM 26.8308 -80.9675 302° West 156 180 4,500  Level Miami Center
06:17PM 26.8506 -81.0103 297° West 156 180 4,600 60 Climbing Miami Center
06:18PM 26.8722 -81.0483 303° West 156 180 4,700 -60 Climbing Miami Center
06:19PM 26.8858 -81.0861 292° West 156 180 4,500 -180 Descending Miami Center
06:20PM 26.9075 -81.1286 300° West 156 180 4,400 -120 Descending Miami Center
06:21PM 26.9292 -81.1736 298° West 156 180 4,300 -60 Descending Miami Center
06:22PM 26.9467 -81.2139 296° West 156 180 4,300  Level Miami Center
06:23PM 26.9686 -81.2544 301° West 150 173 4,300 60 Level Miami Center
06:24PM 26.9881 -81.2947 298° West 150 173 4,500 60 Climbing Miami Center
06:25PM 27.0100 -81.3328 303° West 150 173 4,500  Level Miami Center
06:26PM 27.0297 -81.3733 299° West 150 173 4,500 -60 Level Miami Center
06:27PM 27.0511 -81.4161 299° West 150 173 4,400 -120 Descending Miami Center
06:28PM 27.0708 -81.4589 297° West 161 185 4,300 -60 Descending Miami Center
06:29PM 27.0883 -81.4992 296° West 161 185 4,300  Level Miami Center
06:30PM 27.1078 -81.5394 298° West 156 180 4,400  Climbing Miami Center
06:31PM 27.1253 -81.5800 296° West 150 173 4,300 -60 Descending Miami Center
06:32PM 27.1450 -81.6181 300° West 150 173 4,300  Level Miami Center
06:33PM 27.1667 -81.6564 302° West 145 167 4,300  Level Miami Center
06:34PM 27.1883 -81.6944 303° West 145 167 4,300  Level Miami Center
06:35PM 27.2078 -81.7350 298° West 140 161 4,300  Level Miami Center
06:36PM 27.2294 -81.7733 302° West 140 161 4,300  Level Miami Center
06:37PM 27.2469 -81.8161 295° West 140 161 4,400  Climbing Miami Center
06:38PM 27.2664 -81.8542 300° West 140 161 4,400  Level Miami Center
06:39PM 27.2858 -81.8947 298° West 140 161 4,500  Climbing Miami Center
06:40PM 27.3075 -81.9356 301° West 140 161 4,500  Level Miami Center
06:41PM 27.3311 -81.9764 303° West 145 167 4,500  Level Miami Center
06:42PM 27.3525 -82.0169 301° West 145 167 4,500 960 Level Miami Center
06:43PM 27.3739 -82.0575 301° West 145 167 6,500 960 Climbing Miami Center
06:44PM 27.3956 -82.0983 301° West 150 173 6,500 -1,020 Level Miami Center
06:45PM 27.4192 -82.1392 303° West 150 173 4,500 -1,020 Descending Miami Center
06:46PM 27.4425 -82.1800 303° West 150 173 4,500  Level Miami Center
06:47PM 27.4661 -82.2208 303° West 150 173 4,500  Level Miami Center
06:48PM 27.4894 -82.2642 301° West 150 173 4,600  Climbing Miami Center
06:49PM 27.5131 -82.3050 303° West 150 173 4,600 -240 Level Miami Center
06:50PM 27.5325 -82.3456 298° West 155 178 4,200 -600 Descending Miami Center
06:51PM 27.5667 -82.4000 305° West 178 205 3,500 -780 Descending Tampa TRACON
06:52PM 27.5833 -82.4333 299° West 179 206 2,700 -600 Descending Tampa TRACON
06:53PM 27.6167 -82.4833 307° West 161 185 2,400 -240 Descending Tampa TRACON
06:54PM 27.6333 -82.5167 299° West 141 162 2,300 -60 Descending Tampa TRACON
06:55PM 27.6500 -82.5667 291° West 139 160 2,300  Level Tampa TRACON
06:56PM 27.6667 -82.6000 299° West 136 157 2,400 60 Climbing Tampa TRACON
06:57PM 27.7000 -82.6333 318° Northwest 133 153 2,500 -240 Climbing Tampa TRACON
06:58PM 27.7167 -82.6500 318° Northwest 146 168 2,000 -360 Descending Tampa TRACON
06:59PM 27.7500 -82.6667 336° Northwest 144 166 1,900 -60 Descending Tampa TRACON
07:00PM 27.8000 -82.6833 344° North 137 158 1,900 -120 Level Tampa TRACON
07:01PM 27.8333 -82.7000 336° Northwest 134 154 1,700 -300 Descending Tampa TRACON
07:02PM 27.8667 -82.7167 336° Northwest 146 168 1,400 -60 Descending Tampa TRACON
07:19PM 27.9333 -82.7500 180° South 113 130 1,000 -60 Descending Tampa TRACON
07:20PM 27.9000 -82.7500 180° South 131 151 1,100  Climbing Tampa TRACON
07:21PM 27.8667 -82.7333 156° South 135 155 1,000  Descending Tampa TRACON
07:22PM 27.8333 -82.7167 156° South 131 151 1,100 120 Climbing Tampa TRACON
07:23PM 27.8000 -82.6833 139° Southeast 139 160 1,300 120 Climbing Tampa TRACON
07:24PM 27.7833 -82.6333 111° Southeast 130 150 1,400 -240 Climbing Tampa TRACON
07:25PM 27.7833 -82.6167 90° East 97 112 900 -540 Descending Tampa TRACON